sensor_id;sensor_type;location;lat;lon;timestamp;P1;durP1;ratioP1;P2;durP2;ratioP2
24383;SDS011;12504;52.870;8.798;2023-02-21T00:00:28;58.00;;;27.35;;
24383;SDS011;12504;52.870;8.798;2023-02-21T00:03:12;62.72;;;28.75;;
24383;SDS011;12504;52.870;8.798;2023-02-21T00:05:56;61.67;;;26.75;;
24383;SDS011;12504;52.870;8.798;2023-02-21T00:08:41;64.88;;;28.23;;
24383;SDS011;12504;52.870;8.798;2023-02-21T00:11:29;69.70;;;29.88;;
24383;SDS011;12504;52.870;8.798;2023-02-21T00:14:14;67.90;;;29.75;;
24383;SDS011;12504;52.870;8.798;2023-02-21T00:16:58;68.43;;;29.83;;
24383;SDS011;12504;52.870;8.798;2023-02-21T00:19:43;65.35;;;29.88;;
24383;SDS011;12504;52.870;8.798;2023-02-21T00:22:27;61.20;;;30.27;;
24383;SDS011;12504;52.870;8.798;2023-02-21T00:25:11;65.05;;;30.08;;
24383;SDS011;12504;52.870;8.798;2023-02-21T00:27:56;70.43;;;30.83;;
24383;SDS011;12504;52.870;8.798;2023-02-21T00:30:43;61.17;;;26.23;;
24383;SDS011;12504;52.870;8.798;2023-02-21T00:33:28;61.60;;;26.15;;
24383;SDS011;12504;52.870;8.798;2023-02-21T00:36:14;57.55;;;26.58;;
24383;SDS011;12504;52.870;8.798;2023-02-21T00:39:00;56.83;;;27.27;;
24383;SDS011;12504;52.870;8.798;2023-02-21T00:41:44;61.72;;;25.02;;
24383;SDS011;12504;52.870;8.798;2023-02-21T00:44:28;53.20;;;27.23;;
24383;SDS011;12504;52.870;8.798;2023-02-21T00:47:13;53.10;;;24.88;;
24383;SDS011;12504;52.870;8.798;2023-02-21T00:49:57;58.88;;;25.63;;
24383;SDS011;12504;52.870;8.798;2023-02-21T00:52:42;56.95;;;26.27;;
24383;SDS011;12504;52.870;8.798;2023-02-21T00:55:26;53.97;;;25.30;;
24383;SDS011;12504;52.870;8.798;2023-02-21T00:58:11;51.63;;;25.98;;
24383;SDS011;12504;52.870;8.798;2023-02-21T01:00:55;57.47;;;24.35;;
24383;SDS011;12504;52.870;8.798;2023-02-21T01:03:40;64.32;;;27.60;;
24383;SDS011;12504;52.870;8.798;2023-02-21T01:06:24;50.53;;;22.10;;
24383;SDS011;12504;52.870;8.798;2023-02-21T01:09:08;52.05;;;23.75;;
24383;SDS011;12504;52.870;8.798;2023-02-21T01:11:52;47.00;;;22.75;;
24383;SDS011;12504;52.870;8.798;2023-02-21T01:14:36;56.15;;;25.77;;
24383;SDS011;12504;52.870;8.798;2023-02-21T01:17:21;58.03;;;28.02;;
24383;SDS011;12504;52.870;8.798;2023-02-21T01:20:05;54.30;;;24.73;;
24383;SDS011;12504;52.870;8.798;2023-02-21T01:22:49;52.33;;;23.83;;
24383;SDS011;12504;52.870;8.798;2023-02-21T01:25:34;49.95;;;22.17;;
24383;SDS011;12504;52.870;8.798;2023-02-21T01:28:18;55.38;;;23.42;;
24383;SDS011;12504;52.870;8.798;2023-02-21T01:31:02;54.15;;;25.10;;
24383;SDS011;12504;52.870;8.798;2023-02-21T01:33:47;58.30;;;26.27;;
24383;SDS011;12504;52.870;8.798;2023-02-21T01:36:31;51.03;;;22.83;;
24383;SDS011;12504;52.870;8.798;2023-02-21T01:39:15;41.75;;;21.83;;
24383;SDS011;12504;52.870;8.798;2023-02-21T01:42:00;47.42;;;23.85;;
24383;SDS011;12504;52.870;8.798;2023-02-21T01:44:46;48.58;;;24.02;;
24383;SDS011;12504;52.870;8.798;2023-02-21T01:47:31;45.33;;;21.10;;
24383;SDS011;12504;52.870;8.798;2023-02-21T01:50:18;45.20;;;22.50;;
24383;SDS011;12504;52.870;8.798;2023-02-21T01:53:07;52.85;;;25.25;;
24383;SDS011;12504;52.870;8.798;2023-02-21T01:55:55;55.75;;;25.58;;
24383;SDS011;12504;52.870;8.798;2023-02-21T01:58:41;50.25;;;24.65;;
24383;SDS011;12504;52.870;8.798;2023-02-21T02:01:31;55.90;;;25.13;;
24383;SDS011;12504;52.870;8.798;2023-02-21T02:04:25;54.50;;;23.83;;
24383;SDS011;12504;52.870;8.798;2023-02-21T02:07:09;62.92;;;26.08;;
24383;SDS011;12504;52.870;8.798;2023-02-21T02:09:54;48.85;;;23.05;;
24383;SDS011;12504;52.870;8.798;2023-02-21T02:12:46;47.63;;;24.33;;
24383;SDS011;12504;52.870;8.798;2023-02-21T02:15:48;55.03;;;27.13;;
24383;SDS011;12504;52.870;8.798;2023-02-21T02:21:35;52.63;;;24.60;;
24383;SDS011;12504;52.870;8.798;2023-02-21T02:24:39;53.67;;;25.50;;
24383;SDS011;12504;52.870;8.798;2023-02-21T02:27:17;51.85;;;24.23;;
24383;SDS011;12504;52.870;8.798;2023-02-21T02:33:21;54.15;;;24.10;;
24383;SDS011;12504;52.870;8.798;2023-02-21T02:36:20;72.75;;;26.77;;
24383;SDS011;12504;52.870;8.798;2023-02-21T02:39:17;52.70;;;24.92;;
24383;SDS011;12504;52.870;8.798;2023-02-21T02:44:37;58.20;;;23.35;;
24383;SDS011;12504;52.870;8.798;2023-02-21T02:47:06;57.72;;;25.70;;
24383;SDS011;12504;52.870;8.798;2023-02-21T02:49:41;52.83;;;25.08;;
24383;SDS011;12504;52.870;8.798;2023-02-21T02:52:09;51.88;;;24.08;;
24383;SDS011;12504;52.870;8.798;2023-02-21T02:54:35;55.63;;;26.13;;
24383;SDS011;12504;52.870;8.798;2023-02-21T02:57:02;58.55;;;27.35;;
24383;SDS011;12504;52.870;8.798;2023-02-21T02:59:35;57.55;;;25.33;;
24383;SDS011;12504;52.870;8.798;2023-02-21T03:02:23;69.63;;;26.73;;
24383;SDS011;12504;52.870;8.798;2023-02-21T03:05:00;52.28;;;25.52;;
24383;SDS011;12504;52.870;8.798;2023-02-21T03:07:49;57.83;;;26.15;;
24383;SDS011;12504;52.870;8.798;2023-02-21T03:10:39;57.22;;;24.50;;
24383;SDS011;12504;52.870;8.798;2023-02-21T03:13:37;61.47;;;26.58;;
24383;SDS011;12504;52.870;8.798;2023-02-21T03:16:19;55.73;;;25.20;;
24383;SDS011;12504;52.870;8.798;2023-02-21T03:18:57;56.25;;;25.08;;
24383;SDS011;12504;52.870;8.798;2023-02-21T03:21:36;73.28;;;27.38;;
24383;SDS011;12504;52.870;8.798;2023-02-21T03:24:07;58.35;;;29.67;;
24383;SDS011;12504;52.870;8.798;2023-02-21T03:26:35;65.47;;;27.38;;
24383;SDS011;12504;52.870;8.798;2023-02-21T03:29:20;58.47;;;28.77;;
24383;SDS011;12504;52.870;8.798;2023-02-21T03:31:49;65.93;;;29.98;;
24383;SDS011;12504;52.870;8.798;2023-02-21T03:34:20;64.07;;;28.08;;
24383;SDS011;12504;52.870;8.798;2023-02-21T03:36:46;65.10;;;28.23;;
24383;SDS011;12504;52.870;8.798;2023-02-21T03:39:13;60.53;;;28.80;;
24383;SDS011;12504;52.870;8.798;2023-02-21T03:41:38;57.55;;;28.67;;
24383;SDS011;12504;52.870;8.798;2023-02-21T03:44:04;71.03;;;28.23;;
24383;SDS011;12504;52.870;8.798;2023-02-21T03:46:31;65.82;;;30.67;;
24383;SDS011;12504;52.870;8.798;2023-02-21T03:48:58;60.13;;;27.65;;
24383;SDS011;12504;52.870;8.798;2023-02-21T03:51:27;54.25;;;27.15;;
24383;SDS011;12504;52.870;8.798;2023-02-21T03:53:53;60.67;;;27.70;;
24383;SDS011;12504;52.870;8.798;2023-02-21T03:56:22;50.53;;;23.77;;
24383;SDS011;12504;52.870;8.798;2023-02-21T03:59:08;54.33;;;23.67;;
24383;SDS011;12504;52.870;8.798;2023-02-21T04:01:35;63.80;;;27.63;;
24383;SDS011;12504;52.870;8.798;2023-02-21T04:04:00;59.00;;;24.05;;
24383;SDS011;12504;52.870;8.798;2023-02-21T04:06:27;59.22;;;23.80;;
24383;SDS011;12504;52.870;8.798;2023-02-21T04:08:53;51.28;;;25.42;;
24383;SDS011;12504;52.870;8.798;2023-02-21T04:11:20;62.85;;;24.52;;
24383;SDS011;12504;52.870;8.798;2023-02-21T04:13:48;57.42;;;25.67;;
24383;SDS011;12504;52.870;8.798;2023-02-21T04:16:14;60.20;;;26.05;;
24383;SDS011;12504;52.870;8.798;2023-02-21T04:18:40;58.13;;;26.90;;
24383;SDS011;12504;52.870;8.798;2023-02-21T04:21:08;53.47;;;26.52;;
24383;SDS011;12504;52.870;8.798;2023-02-21T04:23:34;56.30;;;25.67;;
24383;SDS011;12504;52.870;8.798;2023-02-21T04:26:01;59.75;;;26.85;;
24383;SDS011;12504;52.870;8.798;2023-02-21T04:28:39;65.20;;;27.35;;
24383;SDS011;12504;52.870;8.798;2023-02-21T04:31:04;55.33;;;25.75;;
24383;SDS011;12504;52.870;8.798;2023-02-21T04:33:31;62.63;;;27.10;;
24383;SDS011;12504;52.870;8.798;2023-02-21T04:35:57;56.80;;;25.45;;
24383;SDS011;12504;52.870;8.798;2023-02-21T04:38:32;51.60;;;27.17;;
24383;SDS011;12504;52.870;8.798;2023-02-21T04:40:57;59.45;;;25.23;;
24383;SDS011;12504;52.870;8.798;2023-02-21T04:43:23;60.20;;;26.15;;
24383;SDS011;12504;52.870;8.798;2023-02-21T04:45:49;54.78;;;24.73;;
24383;SDS011;12504;52.870;8.798;2023-02-21T04:48:14;52.83;;;23.55;;
24383;SDS011;12504;52.870;8.798;2023-02-21T04:50:40;48.75;;;23.00;;
24383;SDS011;12504;52.870;8.798;2023-02-21T04:53:06;56.30;;;26.15;;
24383;SDS011;12504;52.870;8.798;2023-02-21T04:55:32;57.28;;;24.77;;
24383;SDS011;12504;52.870;8.798;2023-02-21T04:57:57;54.65;;;22.50;;
24383;SDS011;12504;52.870;8.798;2023-02-21T05:00:23;46.80;;;21.33;;
24383;SDS011;12504;52.870;8.798;2023-02-21T05:02:49;50.38;;;23.23;;
24383;SDS011;12504;52.870;8.798;2023-02-21T05:05:14;53.42;;;23.73;;
24383;SDS011;12504;52.870;8.798;2023-02-21T05:07:41;53.03;;;21.98;;
24383;SDS011;12504;52.870;8.798;2023-02-21T05:10:07;56.30;;;24.92;;
24383;SDS011;12504;52.870;8.798;2023-02-21T05:12:34;43.58;;;22.42;;
24383;SDS011;12504;52.870;8.798;2023-02-21T05:15:01;45.58;;;22.33;;
24383;SDS011;12504;52.870;8.798;2023-02-21T05:17:27;50.00;;;23.63;;
24383;SDS011;12504;52.870;8.798;2023-02-21T05:19:53;46.38;;;21.52;;
24383;SDS011;12504;52.870;8.798;2023-02-21T05:22:19;45.15;;;23.52;;
24383;SDS011;12504;52.870;8.798;2023-02-21T05:24:45;51.63;;;25.00;;
24383;SDS011;12504;52.870;8.798;2023-02-21T05:27:13;52.17;;;22.50;;
24383;SDS011;12504;52.870;8.798;2023-02-21T05:29:40;52.13;;;23.30;;
24383;SDS011;12504;52.870;8.798;2023-02-21T05:32:06;54.13;;;25.50;;
24383;SDS011;12504;52.870;8.798;2023-02-21T05:34:32;57.42;;;23.75;;
24383;SDS011;12504;52.870;8.798;2023-02-21T05:36:58;56.90;;;24.25;;
24383;SDS011;12504;52.870;8.798;2023-02-21T05:39:23;55.95;;;25.23;;
24383;SDS011;12504;52.870;8.798;2023-02-21T05:41:49;52.20;;;24.45;;
24383;SDS011;12504;52.870;8.798;2023-02-21T05:44:15;54.22;;;24.63;;
24383;SDS011;12504;52.870;8.798;2023-02-21T05:46:41;59.05;;;24.98;;
24383;SDS011;12504;52.870;8.798;2023-02-21T05:49:08;55.92;;;24.33;;
24383;SDS011;12504;52.870;8.798;2023-02-21T05:51:37;62.90;;;27.42;;
24383;SDS011;12504;52.870;8.798;2023-02-21T05:54:05;62.75;;;23.73;;
24383;SDS011;12504;52.870;8.798;2023-02-21T05:56:38;57.40;;;24.90;;
24383;SDS011;12504;52.870;8.798;2023-02-21T05:59:05;53.92;;;26.40;;
24383;SDS011;12504;52.870;8.798;2023-02-21T06:01:34;59.83;;;25.77;;
24383;SDS011;12504;52.870;8.798;2023-02-21T06:04:00;54.47;;;23.35;;
24383;SDS011;12504;52.870;8.798;2023-02-21T06:06:26;62.22;;;23.92;;
24383;SDS011;12504;52.870;8.798;2023-02-21T06:08:51;54.80;;;23.95;;
24383;SDS011;12504;52.870;8.798;2023-02-21T06:11:21;59.55;;;25.90;;
24383;SDS011;12504;52.870;8.798;2023-02-21T06:13:49;61.85;;;26.33;;
24383;SDS011;12504;52.870;8.798;2023-02-21T06:16:15;64.20;;;27.75;;
24383;SDS011;12504;52.870;8.798;2023-02-21T06:18:41;58.08;;;26.98;;
24383;SDS011;12504;52.870;8.798;2023-02-21T06:21:06;64.85;;;27.42;;
24383;SDS011;12504;52.870;8.798;2023-02-21T06:23:32;64.82;;;27.20;;
24383;SDS011;12504;52.870;8.798;2023-02-21T06:25:58;63.00;;;27.55;;
24383;SDS011;12504;52.870;8.798;2023-02-21T06:28:29;58.35;;;25.77;;
24383;SDS011;12504;52.870;8.798;2023-02-21T06:30:55;60.10;;;27.33;;
24383;SDS011;12504;52.870;8.798;2023-02-21T06:33:22;59.97;;;26.35;;
24383;SDS011;12504;52.870;8.798;2023-02-21T06:35:47;60.22;;;25.45;;
24383;SDS011;12504;52.870;8.798;2023-02-21T06:38:13;54.40;;;22.30;;
24383;SDS011;12504;52.870;8.798;2023-02-21T06:40:42;53.50;;;25.20;;
24383;SDS011;12504;52.870;8.798;2023-02-21T06:43:09;48.53;;;25.35;;
24383;SDS011;12504;52.870;8.798;2023-02-21T06:45:34;55.30;;;24.58;;
24383;SDS011;12504;52.870;8.798;2023-02-21T06:48:00;54.33;;;23.08;;
24383;SDS011;12504;52.870;8.798;2023-02-21T06:50:26;58.15;;;23.85;;
24383;SDS011;12504;52.870;8.798;2023-02-21T06:52:51;51.38;;;25.50;;
24383;SDS011;12504;52.870;8.798;2023-02-21T06:55:21;56.42;;;24.13;;
24383;SDS011;12504;52.870;8.798;2023-02-21T06:57:47;59.92;;;21.55;;
24383;SDS011;12504;52.870;8.798;2023-02-21T07:00:13;49.08;;;22.33;;
24383;SDS011;12504;52.870;8.798;2023-02-21T07:02:40;48.38;;;22.00;;
24383;SDS011;12504;52.870;8.798;2023-02-21T07:05:06;55.55;;;21.42;;
24383;SDS011;12504;52.870;8.798;2023-02-21T07:07:32;55.65;;;22.23;;
24383;SDS011;12504;52.870;8.798;2023-02-21T07:09:58;48.00;;;22.17;;
24383;SDS011;12504;52.870;8.798;2023-02-21T07:12:23;55.83;;;21.65;;
24383;SDS011;12504;52.870;8.798;2023-02-21T07:14:49;47.80;;;21.98;;
24383;SDS011;12504;52.870;8.798;2023-02-21T07:17:15;55.72;;;22.58;;
24383;SDS011;12504;52.870;8.798;2023-02-21T07:19:41;43.25;;;21.45;;
24383;SDS011;12504;52.870;8.798;2023-02-21T07:22:07;55.00;;;22.63;;
24383;SDS011;12504;52.870;8.798;2023-02-21T07:24:33;44.28;;;21.85;;
24383;SDS011;12504;52.870;8.798;2023-02-21T07:26:58;45.78;;;22.10;;
24383;SDS011;12504;52.870;8.798;2023-02-21T07:29:24;50.05;;;22.08;;
24383;SDS011;12504;52.870;8.798;2023-02-21T07:31:50;50.22;;;22.75;;
24383;SDS011;12504;52.870;8.798;2023-02-21T07:34:16;48.38;;;21.98;;
24383;SDS011;12504;52.870;8.798;2023-02-21T07:36:43;44.63;;;20.45;;
24383;SDS011;12504;52.870;8.798;2023-02-21T07:39:09;48.70;;;20.95;;
24383;SDS011;12504;52.870;8.798;2023-02-21T07:41:35;52.78;;;20.38;;
24383;SDS011;12504;52.870;8.798;2023-02-21T07:44:00;49.22;;;20.48;;
24383;SDS011;12504;52.870;8.798;2023-02-21T07:46:26;41.25;;;20.63;;
24383;SDS011;12504;52.870;8.798;2023-02-21T07:48:53;43.17;;;21.17;;
24383;SDS011;12504;52.870;8.798;2023-02-21T07:51:19;50.08;;;21.92;;
24383;SDS011;12504;52.870;8.798;2023-02-21T07:53:44;51.60;;;20.85;;
24383;SDS011;12504;52.870;8.798;2023-02-21T07:56:10;57.80;;;20.23;;
24383;SDS011;12504;52.870;8.798;2023-02-21T07:58:36;43.08;;;22.33;;
24383;SDS011;12504;52.870;8.798;2023-02-21T08:01:05;47.97;;;21.42;;
24383;SDS011;12504;52.870;8.798;2023-02-21T08:03:31;54.50;;;24.63;;
24383;SDS011;12504;52.870;8.798;2023-02-21T08:05:58;49.95;;;23.27;;
24383;SDS011;12504;52.870;8.798;2023-02-21T08:08:24;44.17;;;19.88;;
24383;SDS011;12504;52.870;8.798;2023-02-21T08:10:50;47.35;;;20.63;;
24383;SDS011;12504;52.870;8.798;2023-02-21T08:13:15;42.10;;;21.48;;
24383;SDS011;12504;52.870;8.798;2023-02-21T08:15:41;43.67;;;19.52;;
24383;SDS011;12504;52.870;8.798;2023-02-21T08:18:13;47.97;;;21.02;;
24383;SDS011;12504;52.870;8.798;2023-02-21T08:20:45;45.08;;;19.42;;
24383;SDS011;12504;52.870;8.798;2023-02-21T08:23:11;45.78;;;20.00;;
24383;SDS011;12504;52.870;8.798;2023-02-21T08:25:37;40.33;;;19.77;;
24383;SDS011;12504;52.870;8.798;2023-02-21T08:28:03;51.85;;;19.50;;
24383;SDS011;12504;52.870;8.798;2023-02-21T08:30:28;40.83;;;20.73;;
24383;SDS011;12504;52.870;8.798;2023-02-21T08:32:54;44.58;;;21.05;;
24383;SDS011;12504;52.870;8.798;2023-02-21T08:35:20;47.63;;;20.80;;
24383;SDS011;12504;52.870;8.798;2023-02-21T08:37:46;40.72;;;20.35;;
24383;SDS011;12504;52.870;8.798;2023-02-21T08:40:13;41.28;;;19.60;;
24383;SDS011;12504;52.870;8.798;2023-02-21T08:42:40;49.90;;;20.13;;
24383;SDS011;12504;52.870;8.798;2023-02-21T08:45:06;46.63;;;19.40;;
24383;SDS011;12504;52.870;8.798;2023-02-21T08:47:38;41.42;;;21.40;;
24383;SDS011;12504;52.870;8.798;2023-02-21T08:50:04;51.58;;;22.60;;
24383;SDS011;12504;52.870;8.798;2023-02-21T08:52:30;46.80;;;19.92;;
24383;SDS011;12504;52.870;8.798;2023-02-21T08:54:55;45.63;;;20.23;;
24383;SDS011;12504;52.870;8.798;2023-02-21T08:57:21;46.88;;;21.23;;
24383;SDS011;12504;52.870;8.798;2023-02-21T08:59:47;46.60;;;21.05;;
24383;SDS011;12504;52.870;8.798;2023-02-21T09:02:23;56.50;;;23.30;;
24383;SDS011;12504;52.870;8.798;2023-02-21T09:04:49;48.47;;;22.98;;
24383;SDS011;12504;52.870;8.798;2023-02-21T09:07:17;40.58;;;21.48;;
24383;SDS011;12504;52.870;8.798;2023-02-21T09:09:44;46.83;;;21.88;;
24383;SDS011;12504;52.870;8.798;2023-02-21T09:12:10;50.15;;;23.60;;
24383;SDS011;12504;52.870;8.798;2023-02-21T09:14:40;52.78;;;21.42;;
24383;SDS011;12504;52.870;8.798;2023-02-21T09:17:07;48.92;;;22.75;;
24383;SDS011;12504;52.870;8.798;2023-02-21T09:19:35;43.55;;;21.85;;
24383;SDS011;12504;52.870;8.798;2023-02-21T09:22:01;41.80;;;20.67;;
24383;SDS011;12504;52.870;8.798;2023-02-21T09:24:28;45.35;;;19.80;;
24383;SDS011;12504;52.870;8.798;2023-02-21T09:26:55;46.53;;;20.40;;
24383;SDS011;12504;52.870;8.798;2023-02-21T09:29:23;44.05;;;21.13;;
24383;SDS011;12504;52.870;8.798;2023-02-21T09:34:18;44.05;;;22.42;;
24383;SDS011;12504;52.870;8.798;2023-02-21T09:36:44;50.35;;;21.63;;
24383;SDS011;12504;52.870;8.798;2023-02-21T09:39:11;49.60;;;20.08;;
24383;SDS011;12504;52.870;8.798;2023-02-21T09:41:37;50.15;;;22.98;;
24383;SDS011;12504;52.870;8.798;2023-02-21T09:44:10;43.05;;;19.55;;
24383;SDS011;12504;52.870;8.798;2023-02-21T09:46:41;35.97;;;18.70;;
24383;SDS011;12504;52.870;8.798;2023-02-21T09:49:15;46.88;;;22.30;;
24383;SDS011;12504;52.870;8.798;2023-02-21T09:51:46;41.90;;;20.98;;
24383;SDS011;12504;52.870;8.798;2023-02-21T09:54:18;50.22;;;21.38;;
24383;SDS011;12504;52.870;8.798;2023-02-21T09:56:49;39.97;;;18.25;;
24383;SDS011;12504;52.870;8.798;2023-02-21T09:59:15;45.97;;;22.80;;
24383;SDS011;12504;52.870;8.798;2023-02-21T10:10:29;43.40;;;19.77;;
24383;SDS011;12504;52.870;8.798;2023-02-21T10:13:18;45.47;;;19.40;;
24383;SDS011;12504;52.870;8.798;2023-02-21T10:19:17;46.00;;;20.95;;
24383;SDS011;12504;52.870;8.798;2023-02-21T10:21:50;44.53;;;20.92;;
24383;SDS011;12504;52.870;8.798;2023-02-21T10:24:20;47.72;;;21.88;;
24383;SDS011;12504;52.870;8.798;2023-02-21T10:26:50;38.97;;;19.50;;
24383;SDS011;12504;52.870;8.798;2023-02-21T10:29:22;44.95;;;21.02;;
24383;SDS011;12504;52.870;8.798;2023-02-21T10:31:53;41.72;;;22.52;;
24383;SDS011;12504;52.870;8.798;2023-02-21T10:34:24;39.85;;;19.33;;
24383;SDS011;12504;52.870;8.798;2023-02-21T10:36:52;42.50;;;21.77;;
24383;SDS011;12504;52.870;8.798;2023-02-21T10:39:43;48.30;;;20.40;;
24383;SDS011;12504;52.870;8.798;2023-02-21T10:42:17;40.38;;;18.98;;
24383;SDS011;12504;52.870;8.798;2023-02-21T10:44:52;43.97;;;18.35;;
24383;SDS011;12504;52.870;8.798;2023-02-21T10:47:25;38.53;;;18.27;;
24383;SDS011;12504;52.870;8.798;2023-02-21T10:50:05;34.67;;;17.77;;
24383;SDS011;12504;52.870;8.798;2023-02-21T10:52:35;34.63;;;19.33;;
24383;SDS011;12504;52.870;8.798;2023-02-21T10:55:04;34.97;;;16.98;;
24383;SDS011;12504;52.870;8.798;2023-02-21T10:57:41;49.13;;;20.05;;
24383;SDS011;12504;52.870;8.798;2023-02-21T11:00:09;33.60;;;16.00;;
24383;SDS011;12504;52.870;8.798;2023-02-21T11:02:54;36.65;;;18.65;;
24383;SDS011;12504;52.870;8.798;2023-02-21T11:05:22;31.30;;;17.00;;
24383;SDS011;12504;52.870;8.798;2023-02-21T11:08:37;30.95;;;15.70;;
24383;SDS011;12504;52.870;8.798;2023-02-21T11:10:57;40.83;;;17.95;;
24383;SDS011;12504;52.870;8.798;2023-02-21T11:13:23;31.05;;;15.55;;
24383;SDS011;12504;52.870;8.798;2023-02-21T11:18:32;32.10;;;14.80;;
24383;SDS011;12504;52.870;8.798;2023-02-21T11:20:57;32.45;;;15.40;;
24383;SDS011;12504;52.870;8.798;2023-02-21T11:23:47;28.13;;;13.70;;
24383;SDS011;12504;52.870;8.798;2023-02-21T11:26:23;27.27;;;14.98;;
24383;SDS011;12504;52.870;8.798;2023-02-21T11:28:49;26.75;;;13.82;;
24383;SDS011;12504;52.870;8.798;2023-02-21T11:31:21;31.80;;;16.20;;
24383;SDS011;12504;52.870;8.798;2023-02-21T11:34:03;33.42;;;15.55;;
24383;SDS011;12504;52.870;8.798;2023-02-21T11:36:32;31.67;;;15.15;;
24383;SDS011;12504;52.870;8.798;2023-02-21T11:44:22;28.90;;;14.88;;
24383;SDS011;12504;52.870;8.798;2023-02-21T11:46:57;34.10;;;14.65;;
24383;SDS011;12504;52.870;8.798;2023-02-21T11:52:21;29.15;;;14.57;;
24383;SDS011;12504;52.870;8.798;2023-02-21T11:54:53;33.35;;;15.77;;
24383;SDS011;12504;52.870;8.798;2023-02-21T11:57:32;30.05;;;14.98;;
24383;SDS011;12504;52.870;8.798;2023-02-21T12:00:24;35.22;;;18.35;;
24383;SDS011;12504;52.870;8.798;2023-02-21T12:03:07;33.97;;;17.00;;
24383;SDS011;12504;52.870;8.798;2023-02-21T12:08:55;31.23;;;15.90;;
24383;SDS011;12504;52.870;8.798;2023-02-21T12:11:49;30.90;;;16.52;;
24383;SDS011;12504;52.870;8.798;2023-02-21T12:26:36;29.83;;;17.58;;
24383;SDS011;12504;52.870;8.798;2023-02-21T12:34:41;42.13;;;19.13;;
24383;SDS011;12504;52.870;8.798;2023-02-21T12:37:27;36.83;;;18.23;;
24383;SDS011;12504;52.870;8.798;2023-02-21T12:43:22;35.30;;;17.42;;
24383;SDS011;12504;52.870;8.798;2023-02-21T12:46:04;42.80;;;21.17;;
24383;SDS011;12504;52.870;8.798;2023-02-21T12:48:55;38.55;;;18.42;;
24383;SDS011;12504;52.870;8.798;2023-02-21T12:51:39;37.42;;;18.95;;
24383;SDS011;12504;52.870;8.798;2023-02-21T12:54:15;38.45;;;18.52;;
24383;SDS011;12504;52.870;8.798;2023-02-21T12:59:26;32.47;;;18.48;;
24383;SDS011;12504;52.870;8.798;2023-02-21T13:02:10;34.17;;;17.85;;
24383;SDS011;12504;52.870;8.798;2023-02-21T13:04:57;36.70;;;19.25;;
24383;SDS011;12504;52.870;8.798;2023-02-21T13:07:42;34.90;;;17.77;;
24383;SDS011;12504;52.870;8.798;2023-02-21T13:10:21;37.20;;;19.15;;
24383;SDS011;12504;52.870;8.798;2023-02-21T13:13:09;32.60;;;18.08;;
24383;SDS011;12504;52.870;8.798;2023-02-21T13:15:38;40.75;;;19.10;;
24383;SDS011;12504;52.870;8.798;2023-02-21T13:18:07;38.70;;;20.35;;
24383;SDS011;12504;52.870;8.798;2023-02-21T13:20:40;35.45;;;19.13;;
24383;SDS011;12504;52.870;8.798;2023-02-21T13:23:09;42.55;;;19.42;;
24383;SDS011;12504;52.870;8.798;2023-02-21T13:29:28;34.30;;;17.75;;
24383;SDS011;12504;52.870;8.798;2023-02-21T13:32:07;37.45;;;19.13;;
24383;SDS011;12504;52.870;8.798;2023-02-21T13:34:37;45.20;;;20.77;;
24383;SDS011;12504;52.870;8.798;2023-02-21T13:37:21;41.28;;;18.77;;
24383;SDS011;12504;52.870;8.798;2023-02-21T13:39:56;43.65;;;20.02;;
24383;SDS011;12504;52.870;8.798;2023-02-21T13:42:32;43.03;;;19.02;;
24383;SDS011;12504;52.870;8.798;2023-02-21T13:53:16;37.10;;;19.30;;
24383;SDS011;12504;52.870;8.798;2023-02-21T13:58:27;37.80;;;18.90;;
24383;SDS011;12504;52.870;8.798;2023-02-21T14:01:02;39.75;;;21.00;;
24383;SDS011;12504;52.870;8.798;2023-02-21T14:03:39;48.17;;;21.42;;
24383;SDS011;12504;52.870;8.798;2023-02-21T14:08:34;48.22;;;21.33;;
24383;SDS011;12504;52.870;8.798;2023-02-21T14:11:45;37.55;;;19.75;;
24383;SDS011;12504;52.870;8.798;2023-02-21T14:17:02;37.42;;;19.88;;
24383;SDS011;12504;52.870;8.798;2023-02-21T14:19:35;41.95;;;20.30;;
24383;SDS011;12504;52.870;8.798;2023-02-21T14:22:13;39.58;;;19.83;;
24383;SDS011;12504;52.870;8.798;2023-02-21T14:24:51;41.50;;;20.80;;
24383;SDS011;12504;52.870;8.798;2023-02-21T14:27:48;44.72;;;20.63;;
24383;SDS011;12504;52.870;8.798;2023-02-21T14:30:23;44.22;;;21.98;;
24383;SDS011;12504;52.870;8.798;2023-02-21T14:33:08;44.67;;;20.05;;
24383;SDS011;12504;52.870;8.798;2023-02-21T14:35:47;47.75;;;21.70;;
24383;SDS011;12504;52.870;8.798;2023-02-21T14:38:21;40.22;;;20.55;;
24383;SDS011;12504;52.870;8.798;2023-02-21T14:43:38;44.30;;;20.83;;
24383;SDS011;12504;52.870;8.798;2023-02-21T14:51:55;40.13;;;18.33;;
24383;SDS011;12504;52.870;8.798;2023-02-21T14:54:49;45.38;;;18.90;;
24383;SDS011;12504;52.870;8.798;2023-02-21T15:02:52;34.35;;;17.77;;
24383;SDS011;12504;52.870;8.798;2023-02-21T15:05:30;45.67;;;21.20;;
24383;SDS011;12504;52.870;8.798;2023-02-21T15:08:11;39.20;;;20.95;;
24383;SDS011;12504;52.870;8.798;2023-02-21T15:10:42;38.22;;;18.95;;
24383;SDS011;12504;52.870;8.798;2023-02-21T15:13:25;36.50;;;19.48;;
24383;SDS011;12504;52.870;8.798;2023-02-21T15:16:02;40.55;;;20.52;;
24383;SDS011;12504;52.870;8.798;2023-02-21T15:18:32;41.50;;;19.92;;
24383;SDS011;12504;52.870;8.798;2023-02-21T15:21:04;37.97;;;17.63;;
24383;SDS011;12504;52.870;8.798;2023-02-21T15:23:30;38.72;;;18.60;;
24383;SDS011;12504;52.870;8.798;2023-02-21T15:25:58;38.30;;;19.08;;
24383;SDS011;12504;52.870;8.798;2023-02-21T15:28:30;42.70;;;18.53;;
24383;SDS011;12504;52.870;8.798;2023-02-21T15:31:06;33.45;;;18.10;;
24383;SDS011;12504;52.870;8.798;2023-02-21T15:33:35;41.70;;;18.95;;
24383;SDS011;12504;52.870;8.798;2023-02-21T15:36:06;40.80;;;19.00;;
24383;SDS011;12504;52.870;8.798;2023-02-21T15:38:42;39.25;;;19.30;;
24383;SDS011;12504;52.870;8.798;2023-02-21T15:44:22;35.53;;;18.13;;
24383;SDS011;12504;52.870;8.798;2023-02-21T15:46:50;41.05;;;19.40;;
24383;SDS011;12504;52.870;8.798;2023-02-21T15:49:24;42.30;;;18.75;;
24383;SDS011;12504;52.870;8.798;2023-02-21T15:51:53;39.17;;;18.60;;
24383;SDS011;12504;52.870;8.798;2023-02-21T15:56:45;40.58;;;19.15;;
24383;SDS011;12504;52.870;8.798;2023-02-21T15:59:24;41.13;;;19.27;;
24383;SDS011;12504;52.870;8.798;2023-02-21T16:04:36;42.33;;;20.35;;
24383;SDS011;12504;52.870;8.798;2023-02-21T16:07:04;45.65;;;18.40;;
24383;SDS011;12504;52.870;8.798;2023-02-21T16:09:32;41.72;;;20.05;;
24383;SDS011;12504;52.870;8.798;2023-02-21T16:14:47;53.35;;;21.52;;
24383;SDS011;12504;52.870;8.798;2023-02-21T16:19:49;44.67;;;18.50;;
24383;SDS011;12504;52.870;8.798;2023-02-21T16:22:34;34.90;;;18.52;;
24383;SDS011;12504;52.870;8.798;2023-02-21T16:27:36;43.05;;;17.98;;
24383;SDS011;12504;52.870;8.798;2023-02-21T16:30:12;47.42;;;20.88;;
24383;SDS011;12504;52.870;8.798;2023-02-21T16:32:40;46.15;;;19.88;;
24383;SDS011;12504;52.870;8.798;2023-02-21T16:35:12;41.95;;;18.58;;
24383;SDS011;12504;52.870;8.798;2023-02-21T16:37:39;38.42;;;19.33;;
24383;SDS011;12504;52.870;8.798;2023-02-21T16:40:16;41.80;;;20.08;;
24383;SDS011;12504;52.870;8.798;2023-02-21T16:42:50;39.80;;;17.83;;
24383;SDS011;12504;52.870;8.798;2023-02-21T16:45:17;44.92;;;20.55;;
24383;SDS011;12504;52.870;8.798;2023-02-21T16:47:43;44.40;;;19.48;;